createdAt,value
2018-02-16T00:01:21.810Z,99619.15
2018-02-16T00:07:26.336Z,99622.04
2018-02-16T00:13:30.862Z,99639.94
2018-02-16T00:19:35.402Z,99659.66
2018-02-16T00:25:40.718Z,99645.49
2018-02-16T00:31:45.253Z,99652.20
2018-02-16T00:37:49.827Z,99669.38
2018-02-16T00:43:54.746Z,99681.23
2018-02-16T00:50:00.148Z,99708.12
2018-02-16T00:56:04.659Z,99706.25
2018-02-16T01:02:09.254Z,99712.64
2018-02-16T01:08:13.725Z,99706.73
2018-02-16T01:14:18.227Z,99698.45
2018-02-16T01:20:23.022Z,99709.73
2018-02-16T01:26:28.271Z,99723.23
2018-02-16T01:32:32.911Z,99726.37
2018-02-16T01:38:37.509Z,99728.98
2018-02-16T01:44:42.631Z,99729.92
2018-02-16T01:50:47.114Z,99733.64
2018-02-16T01:56:51.888Z,99733.95
2018-02-16T02:02:56.460Z,99720.41
2018-02-16T02:09:00.974Z,99728.38
2018-02-16T02:15:05.648Z,99730.92
2018-02-16T02:21:10.123Z,99741.86
2018-02-16T02:27:14.618Z,99736.35
2018-02-16T02:33:19.511Z,99734.13
2018-02-16T02:39:24.433Z,99741.13
2018-02-16T02:45:29.043Z,99744.07
2018-02-16T02:51:33.514Z,99751.12
2018-02-16T02:57:38.055Z,99762.89
2018-02-16T03:03:42.630Z,99769.69
2018-02-16T03:09:47.116Z,99772.72
2018-02-16T03:15:52.235Z,99783.27
2018-02-16T03:21:56.925Z,99785.20
2018-02-16T03:28:02.268Z,99796.42
2018-02-16T03:34:07.604Z,99817.16
2018-02-16T03:40:12.184Z,99822.06
2018-02-16T03:46:16.739Z,99826.03
2018-02-16T03:52:22.781Z,99841.76
2018-02-16T03:58:27.397Z,99848.20
2018-02-16T04:04:31.927Z,99854.50
2018-02-16T04:10:36.476Z,99868.12
2018-02-16T04:16:41.148Z,99873.38
2018-02-16T04:22:46.160Z,99880.52
2018-02-16T04:28:51.489Z,99883.75
2018-02-16T04:34:56.276Z,99885.88
2018-02-16T04:41:00.845Z,99888.95
2018-02-16T04:47:05.406Z,99885.92
2018-02-16T04:53:09.991Z,99880.47
2018-02-16T04:59:14.462Z,99876.78
2018-02-16T05:05:19.081Z,99883.95
2018-02-16T05:11:24.404Z,99887.70
2018-02-16T05:17:28.878Z,99890.10
2018-02-16T05:23:34.345Z,99892.64
2018-02-16T05:29:38.864Z,99900.11
2018-02-16T05:35:43.505Z,99914.46
2018-02-16T05:41:48.087Z,99919.02
2018-02-16T05:47:53.958Z,99923.09
2018-02-16T05:53:58.634Z,99940.05
2018-02-16T06:00:03.892Z,99956.78
2018-02-16T06:06:08.385Z,99974.59
2018-02-16T06:12:12.935Z,99976.77
2018-02-16T06:18:17.429Z,99985.92
2018-02-16T06:24:22.564Z,99979.38
2018-02-16T06:30:27.078Z,99990.59
2018-02-16T06:36:31.652Z,99990.81
2018-02-16T06:42:36.176Z,99998.80
2018-02-16T06:48:41.871Z,100011.54
2018-02-16T06:54:46.383Z,100008.58
2018-02-16T07:00:51.301Z,100018.02
2018-02-16T07:06:56.646Z,100025.33
2018-02-16T07:13:01.891Z,100032.31
2018-02-16T07:19:06.463Z,100040.02
2018-02-16T07:25:11.167Z,100054.66
2018-02-16T07:31:16.877Z,100065.15
2018-02-16T07:37:21.505Z,100074.97
2018-02-16T07:43:26.751Z,100082.11
2018-02-16T07:49:31.240Z,100085.97
2018-02-16T07:55:35.767Z,100076.18
2018-02-16T08:01:40.234Z,100075.74
2018-02-16T08:07:44.742Z,100094.94
2018-02-16T08:13:49.354Z,100096.20
2018-02-16T08:19:54.486Z,100112.88
2018-02-16T08:25:59.150Z,100124.78
2018-02-16T08:32:04.391Z,100124.87
2018-02-16T08:38:09.797Z,100136.27
2018-02-16T08:44:14.273Z,100147.80
2018-02-16T08:50:18.822Z,100151.11
2018-02-16T08:56:23.752Z,100158.76
2018-02-16T09:02:28.252Z,100170.38
2018-02-16T09:08:32.750Z,100181.41
2018-02-16T09:14:37.995Z,100195.92
2018-02-16T09:20:42.710Z,100207.73
2018-02-16T09:26:48.030Z,100222.91
2018-02-16T09:32:53.216Z,100211.22
2018-02-16T09:39:00.093Z,100224.23
2018-02-16T09:45:04.811Z,100224.24
2018-02-16T09:51:09.335Z,100232.20
2018-02-16T09:57:13.857Z,100232.02
2018-02-16T10:03:18.336Z,100242.20
2018-02-16T10:09:22.846Z,100235.55
2018-02-16T10:15:27.349Z,100240.28
2018-02-16T10:21:31.815Z,100246.30
2018-02-16T10:27:36.391Z,100265.68
2018-02-16T10:33:42.501Z,100281.03
2018-02-16T10:39:47.009Z,100275.08
2018-02-16T10:45:52.681Z,100280.73
2018-02-16T10:51:57.931Z,100279.06
2018-02-16T10:58:02.462Z,100278.92
2018-02-16T11:04:07.029Z,100279.73
2018-02-16T11:10:12.288Z,100279.09
2018-02-16T11:16:16.813Z,100284.34
2018-02-16T11:22:22.093Z,100286.50
2018-02-16T11:28:26.558Z,100295.23
2018-02-16T11:34:31.035Z,100297.66
2018-02-16T11:40:36.297Z,100289.91
2018-02-16T11:46:40.766Z,100283.67
2018-02-16T11:52:45.240Z,100284.09
2018-02-16T11:58:49.810Z,100282.89
2018-02-16T12:04:55.131Z,100293.73
2018-02-16T12:10:59.790Z,100291.99
2018-02-16T12:17:04.309Z,100281.53
2018-02-16T12:23:08.785Z,100273.93
2018-02-16T12:29:13.408Z,100281.70
2018-02-16T12:35:18.027Z,100282.28
2018-02-16T12:41:22.531Z,100281.03
2018-02-16T12:47:27.808Z,100276.45
2018-02-16T12:53:32.297Z,100275.98
2018-02-16T12:59:36.769Z,100290.84
2018-02-16T13:05:41.259Z,100279.52
2018-02-16T13:11:45.817Z,100281.89
2018-02-16T13:17:50.820Z,100283.61
2018-02-16T13:23:55.329Z,100289.50
2018-02-16T13:29:59.849Z,100282.36
2018-02-16T13:36:04.340Z,100281.02
2018-02-16T13:42:08.848Z,100297.80
2018-02-16T13:48:14.114Z,100297.15
2018-02-16T13:54:19.642Z,100302.43
2018-02-16T14:00:24.262Z,100300.08
2018-02-16T14:06:28.766Z,100303.31
2018-02-16T14:12:33.336Z,100292.92
2018-02-16T14:18:37.833Z,100301.53
2018-02-16T14:24:42.351Z,100290.41
2018-02-16T14:30:47.690Z,100294.66
2018-02-16T14:36:52.553Z,100298.69
2018-02-16T14:42:57.017Z,100301.55
2018-02-16T14:49:02.258Z,100308.48
2018-02-16T14:55:06.753Z,100309.48
2018-02-16T15:01:11.230Z,100308.89
2018-02-16T15:07:15.730Z,100319.28
2018-02-16T15:13:20.694Z,100320.45
2018-02-16T15:19:25.173Z,100311.11
2018-02-16T15:25:30.442Z,100308.61
2018-02-16T15:31:34.936Z,100318.11
2018-02-16T15:43:42.958Z,100333.72
2018-02-16T15:49:48.310Z,100335.08
2018-02-16T15:55:52.780Z,100338.73
2018-02-16T16:01:58.084Z,100350.93
2018-02-16T16:08:02.854Z,100350.22
2018-02-16T16:14:08.153Z,100361.09
2018-02-16T16:20:13.415Z,100367.22
2018-02-16T16:26:18.023Z,100365.79
2018-02-16T16:32:23.822Z,100374.30
2018-02-16T16:38:28.367Z,100375.48
2018-02-16T16:44:32.840Z,100390.17
2018-02-16T16:50:37.360Z,100386.59
2018-02-16T16:56:41.783Z,100390.50
2018-02-16T17:02:46.253Z,100404.25
2018-02-16T17:08:51.509Z,100410.91
2018-02-16T17:14:56.175Z,100424.15
2018-02-16T17:21:00.660Z,100417.78
2018-02-16T17:27:05.251Z,100424.00
2018-02-16T17:33:09.850Z,100429.19
2018-02-16T17:39:14.341Z,100437.05
2018-02-16T17:45:18.820Z,100436.78
2018-02-16T17:51:23.365Z,100440.55
2018-02-16T17:57:28.632Z,100454.92
2018-02-16T18:03:33.106Z,100457.23
2018-02-16T18:09:37.637Z,100468.12
2018-02-16T18:15:42.134Z,100475.16
2018-02-16T18:21:46.618Z,100480.36
2018-02-16T18:27:51.320Z,100469.29
2018-02-16T18:33:55.804Z,100463.49
2018-02-16T18:40:00.244Z,100462.91
2018-02-16T18:46:04.725Z,100461.16
2018-02-16T18:52:09.186Z,100460.77
2018-02-16T18:58:13.651Z,100451.80
2018-02-16T19:04:19.320Z,100441.11
2018-02-16T19:10:23.816Z,100443.63
2018-02-16T19:16:28.487Z,100451.86
2018-02-16T19:22:33.841Z,100454.91
2018-02-16T19:28:38.395Z,100440.59
2018-02-16T19:34:43.107Z,100442.67
2018-02-16T19:40:48.100Z,100439.41
2018-02-16T19:46:52.826Z,100442.58
2018-02-16T19:52:57.310Z,100439.27
2018-02-16T19:59:02.542Z,100436.61
2018-02-16T20:05:07.025Z,100434.70
2018-02-16T20:11:11.506Z,100432.84
2018-02-16T20:17:16.106Z,100435.27
2018-02-16T20:23:21.729Z,100438.52
2018-02-16T20:29:26.333Z,100434.41
2018-02-16T20:35:31.569Z,100430.63
2018-02-16T20:41:36.178Z,100417.13
2018-02-16T20:47:40.678Z,100423.74
2018-02-16T20:53:45.953Z,100424.47
2018-02-16T20:59:51.661Z,100436.41
2018-02-16T21:05:56.210Z,100454.80
2018-02-16T21:12:00.682Z,100468.80
2018-02-16T21:18:05.174Z,100474.04
2018-02-16T21:24:09.651Z,100468.75
2018-02-16T21:30:14.136Z,100470.34
2018-02-16T21:36:18.602Z,100475.72
2018-02-16T21:42:23.135Z,100481.79
2018-02-16T21:48:27.796Z,100494.84
2018-02-16T21:54:32.273Z,100502.66
2018-02-16T22:00:37.721Z,100496.77
2018-02-16T22:06:43.096Z,100499.29
2018-02-16T22:12:47.614Z,100489.41
2018-02-16T22:18:53.382Z,100483.14
2018-02-16T22:24:57.872Z,100487.40
2018-02-16T22:31:02.398Z,100476.28
2018-02-16T22:37:06.990Z,100471.50
2018-02-16T22:43:12.314Z,100460.51
2018-02-16T22:49:16.894Z,100459.34
2018-02-16T22:55:22.633Z,100456.45
2018-02-16T23:01:27.308Z,100465.04
2018-02-16T23:07:31.882Z,100469.78
2018-02-16T23:13:36.804Z,100459.66
2018-02-16T23:19:41.299Z,100461.04
2018-02-16T23:25:46.573Z,100456.53
2018-02-16T23:31:51.974Z,100468.84
2018-02-16T23:37:56.474Z,100467.83
2018-02-16T23:44:01.711Z,100465.55
2018-02-16T23:50:06.256Z,100467.35
2018-02-16T23:56:10.946Z,100453.71
